John M. Rivers (jr) — WDB8997 — position and weather

sailwx.info

Track history (hours):
 
Tides and Currents Weather Stations Pressure Air Temp Water Temp Dewpoint Dewpoint Depression Visibility Wind Speed Wind Dir Waves Ship Positions

John M. Rivers (jr)

Owner: INGRAM BARGE COMPANY, Nashville, TN. More information available from US FCC via Universal Licensing System and Coast Guard Vessel Documentation Center.

Last reported at 2015-Aug-26 15:15 UTC. Time now 2015-Aug-30 07:54 UTC.
Position N 41°31' W 090°29'.

Length 41 m; draft 3 m.

Type: Towing. MMSI: 366967620.

Date/timePositionNaut miles runAvg speedWind from/ knotsBaromVisibWave heightAir tempDewpointWater temp
2015-Aug-26 15:15N 41°31' W 090°29'2 3.0
2015-Aug-26 14:25N 41°32' W 090°32'1 1.7
2015-Aug-26 13:33N 41°31' W 090°34'0 0.1
2015-Aug-26 12:33N 41°31' W 090°34'1 0.9
2015-Aug-26 11:18N 41°31' W 090°36'  
2015-Aug-23 14:16N 41°29' W 090°37'3 3.3
2015-Aug-23 13:29N 41°31' W 090°34'0 0.2
2015-Aug-23 12:33N 41°31' W 090°34'1 0.7
2015-Aug-23 11:30N 41°31' W 090°33'1 0.6
2015-Aug-23 10:32N 41°32' W 090°32'0 0.0
2015-Aug-23 09:29N 41°32' W 090°32'0 0.0
2015-Aug-23 08:33N 41°32' W 090°32'  
2015-Aug-17 13:14N 41°31' W 090°34'0 0.1
2015-Aug-17 12:32N 41°31' W 090°34'  
Track history (hours):
 
Tides and Currents Weather Stations Pressure Air Temp Water Temp Dewpoint Dewpoint Depression Visibility Wind Speed Wind Dir Waves Ship Positions

John M. Rivers (jr)

Owner: INGRAM BARGE COMPANY, Nashville, TN. More information available from US FCC via Universal Licensing System and Coast Guard Vessel Documentation Center.

Last reported at 2015-Aug-26 15:15 UTC. Time now 2015-Aug-30 07:54 UTC.
Position N 41°31' W 090°29'.

Length 41 m; draft 3 m.

Type: Towing. MMSI: 366967620.

Date/timePositionNaut miles runAvg speedWind from/ knotsBaromVisibWave heightAir tempDewpointWater temp
2015-Aug-26 15:15N 41°31' W 090°29'2 3.0
2015-Aug-26 14:25N 41°32' W 090°32'1 1.7
2015-Aug-26 13:33N 41°31' W 090°34'0 0.1
2015-Aug-26 12:33N 41°31' W 090°34'1 0.9
2015-Aug-26 11:18N 41°31' W 090°36'  
2015-Aug-23 14:16N 41°29' W 090°37'3 3.3
2015-Aug-23 13:29N 41°31' W 090°34'0 0.2
2015-Aug-23 12:33N 41°31' W 090°34'1 0.7
2015-Aug-23 11:30N 41°31' W 090°33'1 0.6
2015-Aug-23 10:32N 41°32' W 090°32'0 0.0
2015-Aug-23 09:29N 41°32' W 090°32'0 0.0
2015-Aug-23 08:33N 41°32' W 090°32'  
2015-Aug-17 13:14N 41°31' W 090°34'0 0.1
2015-Aug-17 12:32N 41°31' W 090°34'  

Dump ship's entire track history